Time;durP1;ratioP1;P1;durP2;ratioP2;P2;SDS_P1;SDS_P2;PMS_P1;PMS_P2;Temp;Humidity;BMP_temperature;BMP_pressure;BME280_temperature;BME280_humidity;BME280_pressure;Samples;Min_cycle;Max_cycle;Signal;HPM_P1;HPM_P2
2023/06/20 00:00:09;;;;;;;8.05;7.22;;;;;;;21.96;100.00;97637.25;5055844;28;20209;-77
2023/06/20 00:02:35;;;;;;;8.93;7.60;;;;;;;21.92;100.00;97638.94;5055354;28;20228;-77
2023/06/20 00:05:03;;;;;;;8.13;7.10;;;;;;;21.88;100.00;97649.56;5055733;28;20216;-77
2023/06/20 00:07:30;;;;;;;7.63;6.93;;;;;;;21.86;100.00;97640.16;5067528;28;20239;-77
2023/06/20 00:09:56;;;;;;;10.85;7.85;;;;;;;21.85;100.00;97649.38;5074796;28;20227;-77
2023/06/20 00:12:22;;;;;;;8.02;7.22;;;;;;;21.84;100.00;97667.50;5062311;28;20209;-77
2023/06/20 00:14:49;;;;;;;7.90;7.10;;;;;;;21.85;100.00;97677.25;5055591;28;20209;-77
2023/06/20 00:17:15;;;;;;;8.48;7.13;;;;;;;21.96;100.00;97685.97;5055216;28;20224;-77
2023/06/20 00:19:42;;;;;;;6.88;6.35;;;;;;;22.04;100.00;97691.50;5055219;28;20204;-77
2023/06/20 00:22:08;;;;;;;5.93;5.45;;;;;;;22.17;96.46;97701.53;5056488;28;20209;-76
2023/06/20 00:24:35;;;;;;;5.35;4.95;;;;;;;22.33;92.80;97704.69;5075107;28;20219;-77
2023/06/20 00:27:02;;;;;;;5.97;5.50;;;;;;;22.51;89.31;97711.94;5069369;28;20229;-77
2023/06/20 00:29:28;;;;;;;5.60;5.10;;;;;;;22.63;86.73;97718.47;5056098;28;20201;-77
2023/06/20 00:31:55;;;;;;;5.72;5.20;;;;;;;22.66;86.26;97725.97;5054888;28;20205;-77
2023/06/20 00:34:21;;;;;;;4.95;4.55;;;;;;;22.62;86.54;97735.03;5055086;28;20209;-77
2023/06/20 00:36:48;;;;;;;5.93;5.40;;;;;;;22.69;86.86;97748.94;5054988;28;20275;-77
2023/06/20 00:39:14;;;;;;;5.60;5.20;;;;;;;22.77;85.93;97783.47;5068877;28;20204;-77
2023/06/20 00:41:40;;;;;;;5.70;5.20;;;;;;;22.72;89.49;97806.06;5058354;28;20208;-77
2023/06/20 00:44:07;;;;;;;5.22;4.82;;;;;;;22.81;87.21;97820.53;5058033;28;20216;-77
2023/06/20 00:46:37;;;;;;;5.53;5.03;;;;;;;22.55;92.52;97822.13;5051939;28;20240;-76
2023/06/20 00:49:05;;;;;;;7.38;5.60;;;;;;;22.23;100.00;97848.44;5056111;28;20201;-77
2023/06/20 00:51:33;;;;;;;7.03;6.40;;;;;;;21.70;100.00;97841.78;5054877;28;20673;-77
2023/06/20 00:53:59;;;;;;;8.23;7.10;;;;;;;21.17;100.00;97849.31;5056781;28;20571;-76
2023/06/20 00:56:26;;;;;;;7.67;6.77;;;;;;;20.86;100.00;97842.66;5054632;28;20224;-76
2023/06/20 00:58:53;;;;;;;7.70;6.80;;;;;;;20.60;100.00;97859.44;5058633;28;20209;-76
2023/06/20 01:01:21;;;;;;;7.80;7.00;;;;;;;20.48;100.00;97864.47;5069912;28;20602;-75
2023/06/20 01:03:50;;;;;;;9.53;7.33;;;;;;;20.34;100.00;97855.44;5060089;28;20213;-75
2023/06/20 01:06:32;;;;;;;7.80;7.00;;;;;;;20.26;100.00;97856.84;5056591;28;20270;-75
2023/06/20 01:09:08;;;;;;;7.63;6.83;;;;;;;20.16;100.00;97866.94;5059515;28;20208;-75
2023/06/20 01:11:44;;;;;;;7.73;7.03;;;;;;;20.12;100.00;97874.00;5055791;28;20236;-75
2023/06/20 01:14:32;;;;;;;7.47;6.87;;;;;;;20.08;100.00;97873.75;5061646;28;20216;-75
2023/06/20 01:17:04;;;;;;;7.93;7.23;;;;;;;20.00;100.00;97868.13;5074630;28;20224;-75
2023/06/20 01:20:15;;;;;;;7.77;6.80;;;;;;;19.95;100.00;97873.56;5071514;28;20201;-75
2023/06/20 01:23:09;;;;;;;7.47;6.70;;;;;;;19.83;100.00;97865.84;5052977;28;20715;-75
2023/06/20 01:25:46;;;;;;;7.50;6.70;;;;;;;19.76;100.00;97859.97;5053381;28;20201;-75
2023/06/20 01:28:30;;;;;;;8.50;7.60;;;;;;;19.71;100.00;97856.53;5054216;28;20189;-75
2023/06/20 01:31:08;;;;;;;7.40;6.70;;;;;;;19.68;100.00;97850.59;5054162;28;20200;-75
2023/06/20 01:33:43;;;;;;;7.30;6.60;;;;;;;19.67;100.00;97851.69;5053801;28;20660;-75
2023/06/20 01:36:12;;;;;;;6.43;5.93;;;;;;;19.64;100.00;97843.34;5053604;28;20239;-76
2023/06/20 01:38:39;;;;;;;5.60;5.10;;;;;;;19.63;100.00;97840.94;5053739;28;20201;-75
2023/06/20 01:41:08;;;;;;;6.00;4.60;;;;;;;19.55;100.00;97835.03;5058836;28;20197;-75
2023/06/20 01:43:37;;;;;;;6.67;5.07;;;;;;;19.55;100.00;97823.47;5072778;28;20212;-75
2023/06/20 01:46:05;;;;;;;4.93;4.53;;;;;;;19.50;100.00;97824.28;5054059;28;20321;-75
2023/06/20 01:48:34;;;;;;;5.30;4.80;;;;;;;19.54;100.00;97819.94;5054058;28;20212;-75
2023/06/20 01:51:01;;;;;;;5.00;4.53;;;;;;;19.48;100.00;97827.56;5066073;28;20579;-74
2023/06/20 01:53:29;;;;;;;6.70;6.03;;;;;;;19.46;100.00;97836.72;5073056;28;20241;-75
2023/06/20 01:55:56;;;;;;;5.50;5.00;;;;;;;19.49;100.00;97821.88;5063477;28;20256;-75
2023/06/20 01:58:24;;;;;;;5.50;5.00;;;;;;;19.48;100.00;97820.25;5053373;28;20205;-75
2023/06/20 02:00:52;;;;;;;5.93;5.30;;;;;;;19.42;100.00;97810.63;5058551;28;20209;-75
2023/06/20 02:03:19;;;;;;;5.57;5.07;;;;;;;19.42;100.00;97816.00;5064300;28;20205;-75
2023/06/20 02:05:48;;;;;;;6.20;5.03;;;;;;;19.43;100.00;97818.44;5055281;28;20231;-75
2023/06/20 02:08:16;;;;;;;5.70;5.20;;;;;;;19.45;100.00;97827.03;5073002;28;20209;-75
2023/06/20 02:10:43;;;;;;;6.87;5.47;;;;;;;19.45;100.00;97826.25;5072199;28;20208;-75
2023/06/20 02:13:10;;;;;;;6.00;5.20;;;;;;;19.48;100.00;97830.28;5056106;28;20241;-75
2023/06/20 02:15:38;;;;;;;5.87;5.40;;;;;;;19.42;100.00;97827.56;5061885;28;20201;-75
2023/06/20 02:18:04;;;;;;;6.87;6.00;;;;;;;19.48;100.00;97822.19;5072688;28;20200;-76
2023/06/20 02:20:31;;;;;;;6.03;5.53;;;;;;;19.51;100.00;97809.72;5073759;28;20211;-76
2023/06/20 02:22:57;;;;;;;6.07;5.50;;;;;;;19.49;100.00;97811.09;5070263;28;20513;-75
2023/06/20 02:25:30;;;;;;;6.37;5.40;;;;;;;19.53;100.00;97809.44;5071306;28;20204;-75
2023/06/20 02:27:57;;;;;;;5.90;5.33;;;;;;;19.45;100.00;97804.66;5069540;28;20303;-75
2023/06/20 02:30:27;;;;;;;5.00;4.60;;;;;;;19.44;100.00;97792.25;5073180;28;20204;-75
2023/06/20 02:32:55;;;;;;;6.47;4.90;;;;;;;19.51;100.00;97795.44;5073093;28;20200;-76
2023/06/20 02:35:24;;;;;;;5.43;5.03;;;;;;;19.48;100.00;97796.00;5071577;28;20209;-75
2023/06/20 02:37:57;;;;;;;5.40;4.90;;;;;;;19.42;100.00;97787.13;5073098;28;20287;-76
2023/06/20 02:40:24;;;;;;;5.93;5.33;;;;;;;19.41;100.00;97788.22;5053816;28;20189;-76
2023/06/20 02:42:51;;;;;;;5.60;5.10;;;;;;;19.42;100.00;97789.06;5052492;28;20205;-75
2023/06/20 02:45:18;;;;;;;5.60;5.10;;;;;;;19.41;100.00;97788.22;5053210;28;20212;-75
2023/06/20 02:47:50;;;;;;;5.80;5.27;;;;;;;19.43;100.00;97787.97;5053089;28;20228;-75
2023/06/20 02:50:24;;;;;;;5.83;5.43;;;;;;;19.44;100.00;97787.69;5071704;28;20207;-76
2023/06/20 02:53:04;;;;;;;6.33;5.73;;;;;;;19.42;100.00;97781.75;5052614;28;20205;-76
2023/06/20 02:55:34;;;;;;;6.33;5.43;;;;;;;19.41;100.00;97785.53;5051742;28;20195;-76
2023/06/20 02:58:02;;;;;;;6.20;5.60;;;;;;;19.40;100.00;97783.13;5052403;28;20293;-76
2023/06/20 03:00:31;;;;;;;6.40;5.70;;;;;;;19.32;100.00;97773.75;5072230;28;20219;-75
2023/06/20 03:03:09;;;;;;;6.47;5.97;;;;;;;19.30;100.00;97767.84;5072880;28;20205;-76
2023/06/20 03:05:43;;;;;;;6.60;6.00;;;;;;;19.34;100.00;97784.25;5071577;28;20196;-76
2023/06/20 03:08:11;;;;;;;6.03;5.57;;;;;;;19.29;100.00;97786.97;5071828;28;20220;-75
2023/06/20 03:10:37;;;;;;;6.77;6.17;;;;;;;19.15;100.00;97799.44;5076479;28;20210;-76
2023/06/20 03:13:05;;;;;;;6.80;6.20;;;;;;;19.16;100.00;97801.06;5077355;28;20211;-76
2023/06/20 03:15:32;;;;;;;7.40;6.70;;;;;;;19.11;100.00;97801.09;5075508;28;20209;-76
2023/06/20 03:18:00;;;;;;;7.33;6.63;;;;;;;19.07;100.00;97805.44;5057028;28;20208;-76
2023/06/20 03:20:27;;;;;;;6.53;6.00;;;;;;;19.08;100.00;97799.75;5056866;28;20240;-76
2023/06/20 03:22:53;;;;;;;7.03;6.40;;;;;;;18.96;100.00;97795.81;5056072;28;20794;-76
2023/06/20 03:25:20;;;;;;;7.53;6.83;;;;;;;19.03;100.00;97807.06;5055162;28;20193;-76
2023/06/20 03:27:46;;;;;;;7.43;6.73;;;;;;;19.06;100.00;97806.50;5059211;28;20240;-76
2023/06/20 03:30:14;;;;;;;6.30;5.80;;;;;;;19.03;100.00;97809.75;5056040;28;20205;-76
2023/06/20 03:32:41;;;;;;;6.20;5.70;;;;;;;19.03;100.00;97805.19;5054835;28;20677;-76
2023/06/20 03:35:08;;;;;;;6.00;5.50;;;;;;;19.02;100.00;97805.47;5055597;28;20209;-76
2023/06/20 03:37:35;;;;;;;6.93;6.20;;;;;;;18.90;100.00;97802.28;5064657;28;20224;-76
2023/06/20 03:40:01;;;;;;;6.50;5.90;;;;;;;18.91;100.00;97798.53;5055568;28;20205;-76
2023/06/20 03:42:27;;;;;;;6.43;5.90;;;;;;;18.92;100.00;97797.44;5054518;28;20661;-76
2023/06/20 03:44:54;;;;;;;6.53;6.00;;;;;;;18.86;100.00;97804.75;5055470;28;20198;-76
2023/06/20 03:47:20;;;;;;;6.73;6.13;;;;;;;18.90;100.00;97803.09;5070776;28;20250;-76
2023/06/20 03:49:46;;;;;;;6.53;6.03;;;;;;;18.84;100.00;97798.00;5075514;28;20196;-76
2023/06/20 03:52:13;;;;;;;7.03;6.43;;;;;;;18.83;100.00;97791.03;5075811;28;20204;-76
2023/06/20 03:54:40;;;;;;;7.07;6.50;;;;;;;18.87;100.00;97797.47;5074805;28;20208;-76
2023/06/20 03:57:07;;;;;;;7.30;6.60;;;;;;;18.86;100.00;97793.19;5075478;28;20700;-76
2023/06/20 03:59:33;;;;;;;6.60;6.10;;;;;;;18.83;100.00;97783.72;5075698;28;20204;-76
2023/06/20 04:02:00;;;;;;;6.90;6.30;;;;;;;18.82;100.00;97784.03;5060624;28;20205;-76
2023/06/20 04:04:26;;;;;;;6.47;5.93;;;;;;;18.81;100.00;97788.59;5073278;28;20655;-77
2023/06/20 04:06:52;;;;;;;6.17;5.67;;;;;;;18.90;100.00;97796.91;5059601;28;20225;-77
2023/06/20 04:09:19;;;;;;;7.33;6.30;;;;;;;18.96;100.00;97796.59;5070143;28;20675;-76
2023/06/20 04:11:47;;;;;;;7.53;6.83;;;;;;;18.98;100.00;97791.75;5065638;28;20205;-75
2023/06/20 04:14:13;;;;;;;7.53;6.77;;;;;;;18.99;100.00;97792.53;5055702;28;20580;-76
2023/06/20 04:16:40;;;;;;;8.40;7.67;;;;;;;19.01;100.00;97793.06;5055272;28;20232;-76
2023/06/20 04:19:06;;;;;;;8.23;7.50;;;;;;;19.09;100.00;97795.97;5057546;28;20208;-76
2023/06/20 04:21:32;;;;;;;8.03;7.07;;;;;;;19.05;100.00;97794.91;5075697;28;20211;-76
2023/06/20 04:23:59;;;;;;;8.53;7.27;;;;;;;19.12;100.00;97792.72;5074786;28;20216;-76
2023/06/20 04:26:25;;;;;;;7.90;7.23;;;;;;;19.16;100.00;97790.28;5074592;28;20592;-76
2023/06/20 04:28:52;;;;;;;6.37;5.77;;;;;;;19.18;100.00;97793.50;5063251;28;20209;-76
2023/06/20 04:31:18;;;;;;;6.60;6.10;;;;;;;19.25;100.00;97789.44;5066401;28;20201;-76
2023/06/20 04:33:45;;;;;;;7.40;6.70;;;;;;;19.26;100.00;97795.63;5071587;28;20200;-76
2023/06/20 04:36:13;;;;;;;6.60;5.93;;;;;;;19.31;100.00;97788.31;5066961;28;20595;-76
2023/06/20 04:38:42;;;;;;;6.90;5.77;;;;;;;19.39;100.00;97790.41;5054630;28;20236;-76
2023/06/20 04:41:09;;;;;;;6.43;5.83;;;;;;;19.43;100.00;97786.06;5062874;28;20213;-76
2023/06/20 04:43:36;;;;;;;5.80;5.30;;;;;;;19.46;100.00;97780.09;5064189;28;20205;-76
2023/06/20 04:46:04;;;;;;;6.30;5.40;;;;;;;19.50;100.00;97780.38;5062986;28;20220;-76
2023/06/20 04:48:35;;;;;;;5.50;5.00;;;;;;;19.54;100.00;97782.19;5060140;28;20232;-76
2023/06/20 04:51:02;;;;;;;5.40;4.90;;;;;;;19.58;100.00;97781.66;5053720;28;20288;-76
2023/06/20 04:53:29;;;;;;;6.23;4.73;;;;;;;19.67;100.00;97786.13;5053281;28;20213;-76
2023/06/20 04:55:56;;;;;;;4.40;4.03;;;;;;;19.58;100.00;97782.44;5053121;28;20565;-75
2023/06/20 04:58:22;;;;;;;5.03;4.53;;;;;;;19.66;100.00;97784.53;5053818;28;20205;-75
2023/06/20 05:00:48;;;;;;;6.23;5.00;;;;;;;19.67;100.00;97788.03;5052504;28;20640;-75
2023/06/20 05:03:15;;;;;;;5.03;4.53;;;;;;;19.83;100.00;97794.88;5054163;28;20573;-76
2023/06/20 05:05:41;;;;;;;4.93;4.40;;;;;;;19.91;100.00;97805.88;5054954;28;20265;-75
2023/06/20 05:08:09;;;;;;;5.10;4.60;;;;;;;20.08;100.00;97800.06;5053386;28;20311;-75
2023/06/20 05:10:35;;;;;;;4.67;4.13;;;;;;;20.43;100.00;97805.13;5054189;28;20262;-76
2023/06/20 05:13:01;;;;;;;4.53;4.03;;;;;;;20.71;100.00;97810.41;5054140;28;20208;-76
2023/06/20 05:15:28;;;;;;;4.13;3.73;;;;;;;21.18;100.00;97820.38;5053785;28;20216;-76
2023/06/20 05:17:54;;;;;;;4.20;3.80;;;;;;;21.41;100.00;97816.78;5053730;28;20201;-76
2023/06/20 05:20:21;;;;;;;4.53;3.80;;;;;;;21.79;100.00;97823.78;5053804;28;20209;-76
2023/06/20 05:22:47;;;;;;;4.68;3.65;;;;;;;22.08;100.00;97830.59;5053746;28;20205;-76
2023/06/20 05:25:14;;;;;;;4.32;3.92;;;;;;;22.61;100.00;97822.84;5053365;28;20251;-76
2023/06/20 05:27:40;;;;;;;4.43;4.03;;;;;;;22.37;100.00;97823.00;5053531;28;20243;-76
2023/06/20 05:30:08;;;;;;;3.92;3.53;;;;;;;22.13;100.00;97818.84;5053878;28;20245;-76
2023/06/20 05:32:34;;;;;;;4.95;3.63;;;;;;;21.83;100.00;97822.88;5053526;28;20664;-76
2023/06/20 05:35:01;;;;;;;4.80;3.90;;;;;;;21.64;100.00;97822.09;5053871;28;20211;-76
2023/06/20 05:37:28;;;;;;;4.15;3.30;;;;;;;21.68;100.00;97833.13;5053729;28;20221;-77
2023/06/20 05:39:55;;;;;;;6.68;3.80;;;;;;;21.51;100.00;97838.25;5054233;28;20263;-76
2023/06/20 05:42:22;;;;;;;3.95;3.58;;;;;;;21.52;100.00;97834.47;5053395;28;20205;-76
2023/06/20 05:44:48;;;;;;;4.20;3.90;;;;;;;21.18;100.00;97831.19;5053475;28;20205;-76
2023/06/20 05:47:17;;;;;;;5.97;3.97;;;;;;;21.11;100.00;97828.06;5053622;28;20232;-76
2023/06/20 05:49:45;;;;;;;4.30;3.60;;;;;;;21.31;100.00;97833.97;5053284;28;20216;-76
2023/06/20 05:52:11;;;;;;;5.20;4.10;;;;;;;21.36;100.00;97835.78;5053396;28;20224;-76
2023/06/20 05:54:38;;;;;;;5.73;4.00;;;;;;;21.40;100.00;97834.91;5053428;28;20224;-73
2023/06/20 05:57:05;;;;;;;4.47;3.90;;;;;;;21.40;100.00;97832.22;5052888;28;20225;-73
2023/06/20 05:59:32;;;;;;;3.97;3.47;;;;;;;21.47;100.00;97835.34;5053449;28;20206;-73
2023/06/20 06:01:58;;;;;;;5.03;4.00;;;;;;;21.62;100.00;97834.31;5052888;28;20575;-73
2023/06/20 06:04:25;;;;;;;3.93;3.60;;;;;;;21.63;100.00;97835.91;5053115;28;20209;-73
2023/06/20 06:06:52;;;;;;;4.80;4.40;;;;;;;21.67;100.00;97826.09;5052934;28;20224;-73
2023/06/20 06:09:19;;;;;;;6.67;4.20;;;;;;;21.88;100.00;97836.31;5053046;28;20209;-73
2023/06/20 06:11:46;;;;;;;6.05;4.13;;;;;;;21.86;100.00;97843.97;5052904;28;20205;-73
2023/06/20 06:14:15;;;;;;;5.70;3.80;;;;;;;22.02;100.00;97845.28;5052448;28;20610;-73
2023/06/20 06:16:42;;;;;;;4.82;4.13;;;;;;;22.08;100.00;97843.31;5052712;28;20229;-73
2023/06/20 06:19:08;;;;;;;4.57;3.63;;;;;;;22.17;100.00;97853.16;5053037;28;20201;-73
2023/06/20 06:21:34;;;;;;;4.10;3.78;;;;;;;22.32;100.00;97849.38;5052429;28;20216;-73
2023/06/20 06:24:01;;;;;;;5.63;4.20;;;;;;;22.41;100.00;97852.97;5052834;28;20213;-73
2023/06/20 06:26:27;;;;;;;5.38;4.15;;;;;;;22.33;100.00;97856.38;5052653;28;20229;-72
2023/06/20 06:28:54;;;;;;;4.40;4.00;;;;;;;22.25;100.00;97843.53;5052846;28;20225;-72
2023/06/20 06:31:29;;;;;;;4.78;4.15;;;;;;;22.31;100.00;97847.75;5052947;28;20303;-72
2023/06/20 06:33:57;;;;;;;4.70;4.25;;;;;;;22.56;100.00;97841.91;5053017;28;20244;-73
2023/06/20 06:36:25;;;;;;;4.65;4.10;;;;;;;22.60;100.00;97840.19;5052315;28;20592;-73
2023/06/20 06:38:52;;;;;;;5.63;3.90;;;;;;;22.69;100.00;97846.50;5051057;28;20205;-73
2023/06/20 06:41:19;;;;;;;5.15;4.32;;;;;;;22.74;100.00;97854.56;5052853;28;20209;-73
2023/06/20 06:43:47;;;;;;;5.25;3.95;;;;;;;22.63;100.00;97842.28;5054964;28;20227;-73
2023/06/20 06:46:13;;;;;;;5.63;4.13;;;;;;;22.79;100.00;97847.13;5056865;28;20225;-73
2023/06/20 06:48:39;;;;;;;5.88;4.53;;;;;;;22.81;100.00;97852.22;5056424;28;20669;-72
2023/06/20 06:51:06;;;;;;;6.53;3.85;;;;;;;22.87;100.00;97857.25;5056552;28;20690;-72
2023/06/20 06:53:33;;;;;;;4.90;4.10;;;;;;;22.96;100.00;97850.03;5056557;28;20794;-73
2023/06/20 06:55:59;;;;;;;6.03;4.25;;;;;;;23.01;100.00;97851.84;5056760;28;20221;-72
2023/06/20 06:58:26;;;;;;;5.78;4.15;;;;;;;23.16;99.77;97846.06;5056705;28;20202;-72
2023/06/20 07:00:52;;;;;;;4.20;3.78;;;;;;;23.33;99.28;97849.00;5056576;28;20209;-72
2023/06/20 07:03:18;;;;;;;4.80;4.20;;;;;;;23.33;98.35;97849.00;5056694;28;20249;-72
2023/06/20 07:05:45;;;;;;;6.10;4.10;;;;;;;23.43;96.58;97843.34;5056398;28;20225;-72
2023/06/20 07:08:11;;;;;;;4.32;3.92;;;;;;;23.46;96.98;97839.97;5056301;28;20229;-72
2023/06/20 07:10:37;;;;;;;5.25;4.18;;;;;;;23.62;95.29;97847.50;5056306;28;20209;-72
2023/06/20 07:13:05;;;;;;;6.47;4.38;;;;;;;23.67;94.46;97846.56;5056279;28;20205;-77
2023/06/20 07:15:32;;;;;;;6.53;4.18;;;;;;;23.73;94.57;97848.84;5056422;28;20651;-76
2023/06/20 07:17:59;;;;;;;4.60;4.00;;;;;;;23.71;96.02;97845.66;5056234;28;20205;-76
2023/06/20 07:20:25;;;;;;;5.57;4.13;;;;;;;23.71;94.32;97848.38;5055766;28;20569;-76
2023/06/20 07:22:51;;;;;;;7.07;4.03;;;;;;;23.78;92.15;97846.00;5055786;28;20209;-76
2023/06/20 07:25:19;;;;;;;6.97;4.75;;;;;;;23.86;92.48;97849.88;5056028;28;20195;-76
2023/06/20 07:27:45;;;;;;;5.80;4.30;;;;;;;23.94;92.26;97847.28;5055868;28;20260;-76
2023/06/20 07:30:12;;;;;;;5.80;4.30;;;;;;;23.90;92.20;97853.63;5056079;28;20205;-76
2023/06/20 07:32:38;;;;;;;5.22;3.97;;;;;;;24.12;91.89;97846.28;5056092;28;20205;-76
2023/06/20 07:35:05;;;;;;;4.50;4.10;;;;;;;24.28;87.81;97849.41;5055298;28;20209;-76
2023/06/20 07:37:31;;;;;;;6.30;4.20;;;;;;;24.33;90.42;97850.06;5055842;28;20233;-76
2023/06/20 07:39:57;;;;;;;6.93;4.63;;;;;;;24.35;87.09;97847.03;5055796;28;20569;-76
2023/06/20 07:42:24;;;;;;;5.10;4.20;;;;;;;24.29;87.26;97854.50;5055592;28;20688;-73
2023/06/20 07:44:50;;;;;;;6.57;4.35;;;;;;;24.44;86.71;97854.13;5055552;28;20672;-73
2023/06/20 07:47:16;;;;;;;5.28;4.43;;;;;;;24.45;85.28;97847.56;5055552;28;20734;-72
2023/06/20 07:49:43;;;;;;;4.68;4.28;;;;;;;24.58;88.49;97848.56;5055440;28;20708;-73
2023/06/20 07:52:10;;;;;;;6.55;4.45;;;;;;;24.66;86.76;97850.56;5055572;28;20215;-73
2023/06/20 07:54:36;;;;;;;7.53;4.25;;;;;;;24.66;83.51;97848.66;5055499;28;20236;-72
2023/06/20 07:57:03;;;;;;;5.28;4.35;;;;;;;24.75;82.89;97854.09;5055548;28;20224;-72
2023/06/20 07:59:29;;;;;;;5.05;4.20;;;;;;;24.85;84.70;97857.34;5055698;28;20200;-72
2023/06/20 08:01:56;;;;;;;6.55;4.40;;;;;;;24.82;83.01;97854.44;5055728;28;20298;-72
2023/06/20 08:04:22;;;;;;;4.78;4.38;;;;;;;24.89;84.92;97849.34;5055507;28;20220;-72
2023/06/20 08:06:48;;;;;;;4.43;4.03;;;;;;;24.89;83.82;97849.34;5055480;28;20254;-72
2023/06/20 08:09:15;;;;;;;5.18;3.90;;;;;;;25.16;81.70;97847.19;5055253;28;20225;-73
2023/06/20 08:11:42;;;;;;;6.68;4.60;;;;;;;25.21;81.25;97846.22;5055541;28;20213;-72
2023/06/20 08:14:08;;;;;;;5.88;4.78;;;;;;;25.12;81.68;97851.66;5055470;28;20201;-73
2023/06/20 08:16:34;;;;;;;6.50;4.93;;;;;;;25.31;82.86;97848.66;5055332;28;20233;-73
2023/06/20 08:19:01;;;;;;;6.22;5.15;;;;;;;25.26;81.88;97846.91;5055363;28;20287;-72
2023/06/20 08:21:27;;;;;;;5.13;4.63;;;;;;;25.41;83.28;97841.00;5055574;28;20212;-72
2023/06/20 08:23:53;;;;;;;6.00;4.90;;;;;;;25.57;79.01;97849.50;5055082;28;20213;-72
2023/06/20 08:26:20;;;;;;;5.35;4.85;;;;;;;25.57;78.14;97844.06;5055173;28;20311;-73
2023/06/20 08:28:46;;;;;;;7.68;4.50;;;;;;;25.69;80.23;97841.50;5054777;28;20231;-72
2023/06/20 08:31:12;;;;;;;5.38;4.88;;;;;;;25.51;79.24;97835.22;5055110;28;20235;-72
2023/06/20 08:33:39;;;;;;;5.70;5.10;;;;;;;25.61;80.58;97839.56;5055179;28;20213;-72
2023/06/20 08:36:05;;;;;;;7.05;4.80;;;;;;;25.49;79.87;97833.94;5055812;28;20229;-72
2023/06/20 08:38:31;;;;;;;5.72;4.82;;;;;;;25.70;81.51;97838.44;5054935;28;20212;-72
2023/06/20 08:40:58;;;;;;;5.25;4.75;;;;;;;25.78;78.47;97840.34;5054888;28;20209;-72
2023/06/20 08:43:24;;;;;;;6.50;5.00;;;;;;;25.96;77.25;97830.28;5054811;28;20208;-73
2023/06/20 08:45:55;;;;;;;5.72;5.22;;;;;;;26.16;77.87;97829.59;5054732;28;20653;-72
2023/06/20 08:48:23;;;;;;;10.45;4.80;;;;;;;26.17;75.00;97828.47;5054866;28;20216;-72
2023/06/20 08:50:51;;;;;;;7.88;4.93;;;;;;;26.23;73.76;97827.19;5054870;28;20212;-72
2023/06/20 08:53:18;;;;;;;7.47;4.80;;;;;;;26.16;75.21;97822.22;5054750;28;20208;-72
2023/06/20 08:55:45;;;;;;;5.72;5.07;;;;;;;26.24;75.90;97828.78;5054641;28;20233;-72
2023/06/20 08:58:12;;;;;;;6.35;4.70;;;;;;;26.32;73.60;97827.97;5054310;28;20661;-72
2023/06/20 09:00:39;;;;;;;8.77;4.68;;;;;;;26.25;72.75;97830.38;5054359;28;20209;-72
2023/06/20 09:03:05;;;;;;;5.43;4.93;;;;;;;26.45;73.91;97824.19;5054510;28;20205;-72
2023/06/20 09:05:33;;;;;;;7.53;5.18;;;;;;;26.42;70.28;97822.16;5053524;28;20209;-72
2023/06/20 09:07:59;;;;;;;7.15;5.15;;;;;;;26.54;70.25;97824.97;5053885;28;20233;-73
2023/06/20 09:10:26;;;;;;;8.18;5.00;;;;;;;26.77;70.60;97818.16;5054232;28;20209;-72
2023/06/20 09:12:57;;;;;;;8.55;5.28;;;;;;;26.98;69.44;97817.09;5054099;28;20205;-72
2023/06/20 09:15:25;;;;;;;5.63;5.13;;;;;;;26.81;69.49;97811.72;5053873;28;20290;-72
2023/06/20 09:17:53;;;;;;;9.55;5.18;;;;;;;27.09;67.93;97804.66;5054089;28;20213;-72
2023/06/20 09:20:20;;;;;;;5.30;4.63;;;;;;;26.81;67.55;97798.09;5053493;28;20228;-73
2023/06/20 09:22:47;;;;;;;8.18;5.25;;;;;;;27.10;71.85;97794.53;5054038;28;20205;-73
2023/06/20 09:25:19;;;;;;;6.47;4.80;;;;;;;27.05;67.47;97798.25;5054013;28;20197;-72
2023/06/20 09:27:46;;;;;;;6.32;5.15;;;;;;;26.96;67.99;97788.53;5053913;28;20185;-72
2023/06/20 09:30:12;;;;;;;5.47;4.85;;;;;;;27.18;67.98;97790.97;5053895;28;20211;-72
2023/06/20 09:32:40;;;;;;;6.20;5.30;;;;;;;27.18;66.19;97788.22;5053939;28;20572;-72
2023/06/20 09:35:08;;;;;;;6.18;5.10;;;;;;;27.34;66.43;97783.78;5053616;28;20201;-72
2023/06/20 09:37:46;;;;;;;7.47;4.70;;;;;;;27.81;67.45;97787.88;5053594;28;20232;-72
2023/06/20 09:40:17;;;;;;;8.90;5.18;;;;;;;27.73;65.89;97785.22;5053645;28;20219;-74
2023/06/20 09:42:46;;;;;;;8.85;5.10;;;;;;;27.84;64.77;97783.69;5053276;28;20197;-73
2023/06/20 09:45:14;;;;;;;6.20;5.03;;;;;;;27.66;65.27;97780.28;5053732;28;20216;-73
2023/06/20 09:47:43;;;;;;;5.50;5.00;;;;;;;27.52;61.96;97782.50;5053656;28;20232;-72
2023/06/20 09:50:13;;;;;;;6.22;4.93;;;;;;;27.91;64.30;97775.75;5053360;28;20225;-72
2023/06/20 09:53:01;;;;;;;6.65;4.80;;;;;;;27.77;63.74;97773.31;5053205;28;20576;-73
2023/06/20 09:55:28;;;;;;;6.32;4.90;;;;;;;27.54;61.50;97771.25;5053625;28;20284;-73
2023/06/20 09:57:55;;;;;;;6.65;4.93;;;;;;;27.74;62.71;97763.03;5053319;28;20205;-73
2023/06/20 10:00:24;;;;;;;6.57;5.00;;;;;;;27.78;61.55;97766.69;5053055;28;20674;-73
2023/06/20 10:02:50;;;;;;;5.47;4.97;;;;;;;28.07;60.04;97763.81;5053367;28;20220;-73
2023/06/20 10:05:19;;;;;;;6.07;4.32;;;;;;;28.10;59.96;97760.44;5053460;28;20201;-73
2023/06/20 10:07:48;;;;;;;5.68;4.75;;;;;;;28.39;58.82;97757.50;5053253;28;20233;-73
2023/06/20 10:10:16;;;;;;;6.25;5.00;;;;;;;28.23;57.21;97753.84;5053314;28;20315;-73
2023/06/20 10:12:46;;;;;;;6.03;4.60;;;;;;;28.19;58.44;97760.31;5053338;28;20215;-73
2023/06/20 10:15:15;;;;;;;5.28;4.78;;;;;;;28.34;55.34;97765.91;5053114;28;20220;-72
2023/06/20 10:17:43;;;;;;;5.93;5.00;;;;;;;28.18;56.06;97748.59;5053156;28;20225;-72
2023/06/20 10:20:29;;;;;;;6.18;4.63;;;;;;;28.40;56.64;97772.00;5053392;28;20205;-72
2023/06/20 10:23:00;;;;;;;5.10;4.60;;;;;;;28.82;54.24;97765.97;5053881;28;20506;-73
2023/06/20 10:25:28;;;;;;;5.55;4.35;;;;;;;28.80;53.16;97761.97;5053214;28;20193;-73
2023/06/20 10:28:11;;;;;;;7.40;4.70;;;;;;;28.91;50.10;97749.41;5053173;28;20209;-73
2023/06/20 10:30:57;;;;;;;5.78;4.85;;;;;;;29.20;50.89;97746.44;5053135;28;20197;-73
2023/06/20 10:33:28;;;;;;;7.55;4.72;;;;;;;28.79;48.78;97742.03;5052970;28;20243;-73
2023/06/20 10:35:59;;;;;;;7.80;4.72;;;;;;;29.26;50.68;97734.09;5053593;28;20233;-73
2023/06/20 10:38:26;;;;;;;5.53;4.20;;;;;;;29.41;48.73;97741.56;5052960;28;20216;-73
2023/06/20 10:41:15;;;;;;;5.88;4.18;;;;;;;29.52;47.65;97745.41;5053135;28;20213;-73
2023/06/20 10:43:50;;;;;;;7.15;4.90;;;;;;;29.63;45.25;97743.78;5052965;28;20208;-73
2023/06/20 10:46:17;;;;;;;5.65;4.40;;;;;;;29.66;46.04;97738.41;5052583;28;20711;-73
2023/06/20 10:48:44;;;;;;;5.47;4.35;;;;;;;29.54;44.71;97743.09;5053065;28;20252;-73
2023/06/20 10:51:12;;;;;;;6.78;4.70;;;;;;;28.93;46.67;97739.72;5052715;28;20664;-73
2023/06/20 10:53:38;;;;;;;4.72;4.20;;;;;;;29.20;47.82;97739.00;5053001;28;20213;-73
2023/06/20 10:56:05;;;;;;;5.05;4.60;;;;;;;29.43;46.43;97731.84;5052978;28;20236;-73
2023/06/20 10:58:31;;;;;;;5.03;4.50;;;;;;;29.76;44.77;97726.13;5052796;28;20284;-73
2023/06/20 11:00:57;;;;;;;7.13;5.13;;;;;;;29.97;45.40;97726.72;5052602;28;20213;-72
2023/06/20 11:03:24;;;;;;;7.30;4.50;;;;;;;29.69;42.13;97732.22;5052997;28;20212;-72
2023/06/20 11:05:54;;;;;;;4.70;4.30;;;;;;;29.72;42.00;97731.53;5052649;28;20225;-73
2023/06/20 11:08:27;;;;;;;5.38;3.97;;;;;;;29.53;43.99;97730.56;5052670;28;20205;-73
2023/06/20 11:10:55;;;;;;;6.03;4.53;;;;;;;29.61;44.30;97729.66;5052855;28;20205;-73
2023/06/20 11:13:23;;;;;;;6.82;4.70;;;;;;;29.27;45.32;97725.53;5052661;28;20212;-73
2023/06/20 11:15:49;;;;;;;6.82;4.55;;;;;;;29.50;45.13;97721.09;5052155;28;20229;-73
2023/06/20 11:18:16;;;;;;;4.97;4.47;;;;;;;29.54;44.15;97711.03;5052615;28;20232;-72
2023/06/20 11:20:42;;;;;;;5.43;4.57;;;;;;;29.64;43.58;97718.78;5052501;28;20205;-72
2023/06/20 11:23:12;;;;;;;6.63;4.55;;;;;;;29.83;40.57;97724.38;5052398;28;20220;-72
2023/06/20 11:25:40;;;;;;;6.93;4.63;;;;;;;29.66;40.46;97719.22;5052480;28;20189;-72
2023/06/20 11:28:07;;;;;;;6.20;4.60;;;;;;;30.04;40.30;97716.72;5052618;28;20216;-72
2023/06/20 11:30:35;;;;;;;4.55;4.20;;;;;;;30.02;41.30;97705.31;5055560;28;20595;-72
2023/06/20 11:33:06;;;;;;;5.22;4.70;;;;;;;30.10;42.59;97703.53;5056323;28;20212;-73